Time;durP1;ratioP1;P1;durP2;ratioP2;P2;SDS_P1;SDS_P2;PMS_P1;PMS_P2;Temp;Humidity;BMP_temperature;BMP_pressure;BME280_temperature;BME280_humidity;BME280_pressure;Samples;Min_cycle;Max_cycle;Signal;HPM_P1;HPM_P2
2021/03/01 00:01:34;;;;;;;;;;;4.10;99.90;;;2.28;88.94;103119.88;5003073;28;20383;-41
2021/03/01 00:04:02;;;;;;;;;;;4.10;99.90;;;2.20;88.72;103118.66;5018571;28;19998;-41
2021/03/01 00:06:29;;;;;;;;;;;4.00;99.90;;;2.12;89.92;103111.06;5035522;28;20151;-40
2021/03/01 00:08:56;;;;;;;;;;;4.00;99.90;;;2.18;89.59;103112.50;5019170;28;19931;-41
2021/03/01 00:11:23;;;;;;;;;;;4.00;99.90;;;2.15;89.25;103116.25;5035533;28;19925;-41
2021/03/01 00:13:51;;;;;;;;;;;4.00;99.90;;;2.19;89.08;103115.09;5034636;28;20493;-41
2021/03/01 00:16:18;;;;;;;;;;;4.00;99.90;;;2.17;89.20;103113.47;5035309;28;19925;-41
2021/03/01 00:18:46;;;;;;;;;;;4.00;99.90;;;2.07;88.90;103115.91;5035245;28;19928;-40
2021/03/01 00:21:14;;;;;;;;;;;3.90;99.90;;;2.12;88.77;103114.63;5017123;28;19971;-40
2021/03/01 00:23:41;;;;;;;;;;;3.90;99.90;;;2.01;88.96;103111.78;5052164;28;19925;-41
2021/03/01 00:26:08;;;;;;;;;;;3.80;99.90;;;1.98;89.36;103118.19;5018772;28;19924;-41
2021/03/01 00:28:35;;;;;;;;;;;3.80;99.90;;;1.93;89.44;103101.50;5002475;28;19994;-40
2021/03/01 00:31:03;;;;;;;;;;;3.70;99.90;;;2.00;88.98;103116.31;5018719;28;19936;-41
2021/03/01 00:33:30;;;;;;;;;;;3.70;99.90;;;1.87;89.02;103109.97;5050770;28;19925;-40
2021/03/01 00:35:58;;;;;;;;;;;3.70;99.90;;;1.85;88.99;103112.75;5018443;28;20302;-41
2021/03/01 00:38:25;;;;;;;;;;;3.70;99.90;;;1.85;89.11;103120.81;5034801;28;19925;-40
2021/03/01 00:40:52;;;;;;;;;;;3.70;99.90;;;1.82;89.58;103118.31;5018545;28;20336;-41
2021/03/01 00:43:19;;;;;;;;;;;3.60;99.90;;;1.85;89.27;103115.44;5001499;28;19963;-41
2021/03/01 00:45:47;;;;;;;;;;;3.60;99.90;;;1.93;89.60;103124.88;5018730;28;20027;-40
2021/03/01 00:48:14;;;;;;;;;;;3.70;99.90;;;1.79;90.30;103123.91;5035082;28;19929;-40
2021/03/01 00:50:42;;;;;;;;;;;3.60;99.90;;;1.81;89.96;103115.75;5002237;28;19925;-40
2021/03/01 00:53:10;;;;;;;;;;;3.60;99.90;;;1.68;89.75;103121.91;5034701;28;19929;-40
2021/03/01 00:55:37;;;;;;;;;;;3.50;99.90;;;1.67;90.07;103124.72;5017682;28;19968;-41
2021/03/01 00:58:05;;;;;;;;;;;3.50;99.90;;;1.65;90.26;103124.78;5051144;28;19925;-41
2021/03/01 01:00:32;;;;;;;;;;;3.40;99.90;;;1.57;90.50;103114.50;5002461;28;19924;-40
2021/03/01 01:03:04;;;;;;;;;;;3.40;99.90;;;1.61;90.76;103114.34;5035195;28;19970;-41
2021/03/01 01:05:45;;;;;;;;;;;3.40;99.90;;;1.61;90.84;103122.41;5036281;28;20008;-41
2021/03/01 01:08:12;;;;;;;;;;;3.40;99.90;;;1.50;90.58;103120.38;5034350;28;19924;-41
2021/03/01 01:10:41;;;;;;;;;;;3.30;99.90;;;1.45;90.44;103120.66;5001874;28;19960;-40
2021/03/01 01:13:08;;;;;;;;;;;3.30;99.90;;;1.43;90.49;103114.53;5034086;28;19924;-40
2021/03/01 01:15:36;;;;;;;;;;;3.30;99.90;;;1.36;90.21;103118.56;5034161;28;20280;-40
2021/03/01 01:18:05;;;;;;;;;;;3.20;99.90;;;1.38;90.71;103117.50;5018211;28;20357;-40
2021/03/01 01:20:33;;;;;;;;;;;3.20;99.90;;;1.36;90.81;103110.50;5049001;28;19931;-41
2021/03/01 01:23:01;;;;;;;;;;;3.20;99.90;;;1.38;91.37;103104.03;5050521;28;19925;-40
2021/03/01 01:25:29;;;;;;;;;;;3.20;99.90;;;1.30;91.49;103109.03;5017229;28;19931;-41
2021/03/01 01:27:56;;;;;;;;;;;3.10;99.90;;;1.26;91.10;103116.41;5034052;28;19924;-40
2021/03/01 01:30:25;;;;;;;;;;;3.10;99.90;;;1.23;91.23;103111.22;5002021;28;20283;-40
2021/03/01 01:32:54;;;;;;;;;;;3.10;99.90;;;1.18;91.25;103109.78;5001701;28;20414;-41
2021/03/01 01:35:22;;;;;;;;;;;3.00;99.90;;;1.16;91.19;103107.19;5033306;28;19958;-41
2021/03/01 01:37:50;;;;;;;;;;;3.00;99.90;;;1.18;91.61;103110.66;5033869;28;19928;-41
2021/03/01 01:40:20;;;;;;;;;;;3.00;99.90;;;1.40;92.30;103110.19;5018060;28;19924;-41
2021/03/01 01:42:51;;;;;;;;;;;3.10;99.90;;;1.46;92.85;103111.63;5017657;28;19925;-40
2021/03/01 01:45:22;;;;;;;;;;;3.20;99.90;;;1.70;92.90;103119.13;5032982;28;19925;-40
2021/03/01 01:47:51;;;;;;;;;;;3.40;99.90;;;1.67;92.90;103113.94;5017708;28;19936;-40
2021/03/01 01:50:20;;;;;;;;;;;3.40;99.90;;;1.73;92.91;103110.84;5034086;28;19925;-40
2021/03/01 01:52:50;;;;;;;;;;;3.50;99.90;;;1.74;92.44;103111.72;5017541;28;19960;-40
2021/03/01 01:55:18;;;;;;;;;;;3.50;99.90;;;1.81;92.93;103111.22;5049815;28;19929;-40
2021/03/01 01:57:45;;;;;;;;;;;3.60;99.90;;;1.84;92.85;103107.47;5033798;28;19928;-40
2021/03/01 02:00:28;;;;;;;;;;;3.60;99.90;;;1.86;92.94;103116.31;5017460;28;19924;-40
2021/03/01 02:03:01;;;;;;;;;;;3.60;99.90;;;1.92;92.46;103115.06;5050734;28;19931;-40
2021/03/01 02:05:30;;;;;;;;;;;3.70;99.90;;;1.97;92.29;103118.31;5000861;28;19925;-40
2021/03/01 02:08:12;;;;;;;;;;;3.70;99.90;;;2.01;92.02;103114.47;5017605;28;19960;-41
2021/03/01 02:10:53;;;;;;;;;;;3.70;99.90;;;1.96;91.51;103113.91;5033944;28;19972;-40
2021/03/01 02:13:33;;;;;;;;;;;3.70;99.90;;;1.92;92.02;103109.69;5033148;28;19928;-40
2021/03/01 02:16:07;;;;;;;;;;;3.70;99.90;;;1.88;91.39;103109.00;5017003;28;19925;-41
2021/03/01 02:18:34;;;;;;;;;;;3.60;99.90;;;1.88;91.70;103100.94;5021265;28;20015;-40
2021/03/01 02:21:13;;;;;;;;;;;3.60;99.90;;;1.92;91.33;103096.22;5019369;28;19925;-40
2021/03/01 02:23:41;;;;;;;;;;;3.70;99.90;;;1.83;91.47;103097.66;5036654;28;19929;-41
2021/03/01 02:26:21;;;;;;;;;;;3.60;99.90;;;1.83;91.12;103086.91;5053788;28;19925;-40
2021/03/01 02:28:55;;;;;;;;;;;3.60;99.90;;;1.80;91.04;103096.03;5037332;28;19952;-40
2021/03/01 02:31:25;;;;;;;;;;;3.60;99.90;;;1.79;90.84;103091.59;5037283;28;19924;-40
2021/03/01 02:33:57;;;;;;;;;;;3.60;99.90;;;1.73;91.35;103097.41;5019992;28;19924;-40
2021/03/01 02:36:30;;;;;;;;;;;3.50;99.90;;;1.74;91.05;103091.03;5037068;28;19925;-40
2021/03/01 02:39:00;;;;;;;;;;;3.50;99.90;;;1.80;91.37;103087.09;5053485;28;19928;-40
2021/03/01 02:41:29;;;;;;;;;;;3.50;99.90;;;1.79;90.95;103080.00;5036938;28;19933;-40
2021/03/01 02:43:56;;;;;;;;;;;3.60;99.90;;;1.77;91.43;103077.38;5036202;28;19951;-41
2021/03/01 02:46:25;;;;;;;;;;;3.60;99.90;;;1.71;91.03;103072.41;5004606;28;19925;-40
2021/03/01 02:48:54;;;;;;;;;;;3.50;99.90;;;1.65;90.96;103072.81;4988666;28;20277;-41
2021/03/01 02:51:23;;;;;;;;;;;3.40;99.90;;;1.66;91.42;103064.63;5020381;28;20019;-40
2021/03/01 02:53:52;;;;;;;;;;;3.40;99.90;;;1.67;91.34;103065.50;5019539;28;19924;-41
2021/03/01 02:56:20;;;;;;;;;;;3.50;99.90;;;1.65;90.97;103067.44;5020364;28;20130;-40
2021/03/01 02:58:50;;;;;;;;;;;3.40;99.90;;;1.63;90.92;103067.50;5036620;28;19947;-40
2021/03/01 03:01:20;;;;;;;;;;;3.40;99.90;;;1.64;90.62;103060.31;5036746;28;19964;-40
2021/03/01 03:03:49;;;;;;;;;;;3.40;99.90;;;1.65;90.42;103062.03;5035944;28;19925;-40
2021/03/01 03:06:19;;;;;;;;;;;3.40;99.90;;;1.61;90.62;103065.91;5036507;28;19935;-41
2021/03/01 03:08:48;;;;;;;;;;;3.40;99.90;;;1.62;90.63;103067.63;5020164;28;19925;-40
2021/03/01 03:11:18;;;;;;;;;;;3.40;99.90;;;1.66;91.51;103063.78;5036746;28;19925;-40
2021/03/01 03:13:48;;;;;;;;;;;3.40;99.90;;;1.64;91.34;103063.84;5003216;28;20366;-40
2021/03/01 03:16:17;;;;;;;;;;;3.40;99.90;;;1.58;91.25;103067.78;5019878;28;20015;-41
2021/03/01 03:18:47;;;;;;;;;;;3.40;99.90;;;1.54;92.00;103065.41;5036379;28;19925;-40
2021/03/01 03:21:15;;;;;;;;;;;3.30;99.90;;;1.55;92.04;103057.22;5051139;28;20118;-40
2021/03/01 03:23:42;;;;;;;;;;;3.30;99.90;;;1.65;91.97;103057.50;5035786;28;20303;-40
2021/03/01 03:26:13;;;;;;;;;;;3.40;99.90;;;1.68;92.02;103057.31;4987534;28;19928;-40
2021/03/01 03:28:42;;;;;;;;;;;3.40;99.90;;;1.75;92.03;103060.47;5036329;28;19929;-40
2021/03/01 03:31:11;;;;;;;;;;;3.50;99.90;;;1.77;92.05;103052.31;5003654;28;20299;-40
2021/03/01 03:33:41;;;;;;;;;;;3.50;99.90;;;1.79;92.34;103053.94;5035564;28;19925;-40
2021/03/01 03:36:09;;;;;;;;;;;3.50;99.90;;;1.85;92.46;103058.06;5052808;28;20335;-40
2021/03/01 03:38:47;;;;;;;;;;;3.60;99.90;;;1.82;92.05;103055.56;5035876;28;19983;-40
2021/03/01 03:41:16;;;;;;;;;;;3.60;99.90;;;1.85;92.37;103053.50;5019568;28;19929;-40
2021/03/01 03:43:45;;;;;;;;;;;3.60;99.90;;;1.85;91.63;103055.38;5051788;28;19925;-40
2021/03/01 03:46:14;;;;;;;;;;;3.60;99.90;;;1.91;91.47;103056.81;5035931;28;20302;-40
2021/03/01 03:48:43;;;;;;;;;;;3.60;99.90;;;1.83;91.97;103055.44;5035976;28;19925;-40
2021/03/01 03:51:13;;;;;;;;;;;3.60;99.90;;;1.89;91.77;103059.56;5035739;28;19925;-40
2021/03/01 03:53:44;;;;;;;;;;;3.60;99.90;;;1.88;91.82;103054.31;5018740;28;19928;-40
2021/03/01 03:56:14;;;;;;;;;;;3.60;99.90;;;1.85;91.33;103055.38;5019633;28;20311;-40
2021/03/01 03:58:48;;;;;;;;;;;3.60;99.90;;;1.83;91.46;103060.84;5053607;28;19924;-40
2021/03/01 04:01:21;;;;;;;;;;;3.60;99.90;;;1.86;91.50;103059.78;5019222;28;19925;-40
2021/03/01 04:03:51;;;;;;;;;;;3.60;99.90;;;1.85;91.66;103060.75;5051333;28;19925;-40
2021/03/01 04:06:21;;;;;;;;;;;3.60;99.90;;;1.84;91.67;103064.41;5018895;28;20035;-40
2021/03/01 04:08:51;;;;;;;;;;;3.60;99.90;;;1.83;91.84;103070.75;5053312;28;19940;-40
2021/03/01 04:11:22;;;;;;;;;;;3.60;99.90;;;1.85;91.36;103072.34;5035622;28;19933;-40
2021/03/01 04:13:54;;;;;;;;;;;3.60;99.90;;;1.84;91.64;103073.31;5018334;28;19990;-40
2021/03/01 04:16:23;;;;;;;;;;;3.60;99.90;;;1.86;91.85;103071.44;5051654;28;19932;-40
2021/03/01 04:18:57;;;;;;;;;;;3.60;99.90;;;1.87;91.92;103072.28;5051653;28;19929;-40
2021/03/01 04:21:27;;;;;;;;;;;3.60;99.90;;;1.83;91.56;103071.59;5033651;28;20015;-40
2021/03/01 04:23:57;;;;;;;;;;;3.60;99.90;;;1.88;91.68;103073.16;5050922;28;19924;-40
2021/03/01 04:26:24;;;;;;;;;;;3.60;99.90;;;1.90;91.57;103065.84;5051426;28;19924;-40
2021/03/01 04:28:53;;;;;;;;;;;3.60;99.90;;;1.88;91.42;103065.06;5018932;28;19924;-40
2021/03/01 04:31:22;;;;;;;;;;;3.60;99.90;;;1.86;91.72;103063.34;5051522;28;20300;-40
2021/03/01 04:33:52;;;;;;;;;;;3.60;99.90;;;1.90;91.68;103060.47;5050943;28;20355;-40
2021/03/01 04:36:21;;;;;;;;;;;3.70;99.90;;;1.85;91.97;103058.91;5034821;28;19935;-40
2021/03/01 04:38:48;;;;;;;;;;;3.60;99.90;;;1.86;92.09;103060.66;5035629;28;20280;-40
2021/03/01 04:41:17;;;;;;;;;;;3.60;99.90;;;1.83;92.08;103060.84;5018459;28;19970;-40
2021/03/01 04:43:45;;;;;;;;;;;3.60;99.90;;;1.90;91.92;103061.31;5034494;28;20399;-41
2021/03/01 04:46:13;;;;;;;;;;;3.60;99.90;;;1.92;91.80;103054.00;5051227;28;20020;-40
2021/03/01 04:48:41;;;;;;;;;;;3.70;99.90;;;1.92;91.90;103053.13;5034664;28;20283;-41
2021/03/01 04:51:10;;;;;;;;;;;3.70;99.90;;;1.98;91.62;103058.13;5051144;28;19924;-40
2021/03/01 04:53:38;;;;;;;;;;;3.70;99.90;;;1.96;91.83;103047.44;5050398;28;20019;-40
2021/03/01 04:56:08;;;;;;;;;;;3.70;99.90;;;1.98;91.57;103044.66;5052422;28;19940;-40
2021/03/01 04:58:38;;;;;;;;;;;3.70;99.90;;;1.95;91.74;103047.56;5052183;28;19924;-41
2021/03/01 05:01:07;;;;;;;;;;;3.70;99.90;;;1.93;91.56;103046.78;5051190;28;19925;-40
2021/03/01 05:03:37;;;;;;;;;;;3.70;99.90;;;1.95;91.98;103047.56;5050374;28;19929;-41
2021/03/01 05:06:06;;;;;;;;;;;3.70;99.90;;;1.94;92.47;103051.22;5052027;28;19925;-41
2021/03/01 05:08:35;;;;;;;;;;;3.70;99.90;;;1.95;91.84;103052.94;5050865;28;20306;-41
2021/03/01 05:11:05;;;;;;;;;;;3.70;99.90;;;1.97;91.91;103054.53;5052228;28;20024;-41
2021/03/01 05:13:33;;;;;;;;;;;3.70;99.90;;;1.92;92.19;103050.44;5033892;28;19928;-41
2021/03/01 05:16:01;;;;;;;;;;;3.70;99.90;;;1.95;92.30;103053.78;5050636;28;19925;-40
2021/03/01 05:18:30;;;;;;;;;;;3.70;99.90;;;2.03;92.59;103058.66;5034439;28;19924;-41
2021/03/01 05:20:57;;;;;;;;;;;3.70;99.90;;;2.03;92.20;103055.97;5033326;28;19925;-41
2021/03/01 05:23:24;;;;;;;;;;;3.70;99.90;;;2.01;92.09;103060.59;5050193;28;19925;-41
2021/03/01 05:25:51;;;;;;;;;;;3.70;99.90;;;2.00;92.24;103046.28;5034216;28;19925;-40
2021/03/01 05:28:18;;;;;;;;;;;3.70;99.90;;;2.03;91.69;103061.38;5050753;28;19931;-41
2021/03/01 05:30:45;;;;;;;;;;;3.80;99.90;;;2.05;92.26;103055.88;5050569;28;20284;-41
2021/03/01 05:33:13;;;;;;;;;;;3.70;99.90;;;2.06;91.61;103063.84;5017855;28;20007;-41
2021/03/01 05:35:40;;;;;;;;;;;3.80;99.90;;;2.00;91.44;103058.88;5034104;28;19929;-40
2021/03/01 05:38:09;;;;;;;;;;;3.70;99.90;;;1.98;91.59;103060.81;5051801;28;20292;-40
2021/03/01 05:40:36;;;;;;;;;;;3.70;99.90;;;1.99;91.65;103060.72;5050563;28;19925;-40
2021/03/01 05:43:06;;;;;;;;;;;3.70;99.90;;;1.97;91.40;103059.09;5050482;28;19974;-41
2021/03/01 05:45:34;;;;;;;;;;;3.70;99.90;;;1.92;91.16;103062.06;5050135;28;19925;-41
2021/03/01 05:48:01;;;;;;;;;;;3.70;99.90;;;1.80;91.26;103050.28;5050488;28;19948;-41
2021/03/01 05:50:29;;;;;;;;;;;3.60;99.90;;;1.85;91.34;103063.44;5035027;28;20318;-40
2021/03/01 05:53:00;;;;;;;;;;;3.60;99.90;;;1.90;91.37;103065.84;5054521;28;19924;-41
2021/03/01 05:55:28;;;;;;;;;;;3.60;99.90;;;1.85;91.70;103080.44;5053857;28;19925;-40
2021/03/01 05:57:59;;;;;;;;;;;3.60;99.90;;;1.81;91.56;103070.84;5054464;28;19929;-40
2021/03/01 06:00:27;;;;;;;;;;;3.60;99.90;;;1.82;91.61;103079.78;5054297;28;19925;-40
2021/03/01 06:03:05;;;;;;;;;;;3.60;99.90;;;1.81;91.47;103089.69;5054505;28;19929;-40
2021/03/01 06:05:33;;;;;;;;;;;3.60;99.90;;;1.78;91.36;103076.44;5054859;28;19928;-40
2021/03/01 06:08:00;;;;;;;;;;;3.60;99.90;;;1.78;91.60;103080.97;5054119;28;19928;-41
2021/03/01 06:10:27;;;;;;;;;;;3.50;99.90;;;1.82;91.49;103086.03;5037824;28;19929;-40
2021/03/01 06:12:54;;;;;;;;;;;3.60;99.90;;;1.86;90.97;103084.88;5037605;28;19925;-40
2021/03/01 06:15:22;;;;;;;;;;;3.60;99.90;;;1.80;91.57;103082.56;5053452;28;20383;-41
2021/03/01 06:18:06;;;;;;;;;;;3.60;99.90;;;1.81;91.19;103081.59;5037790;28;19929;-41
2021/03/01 06:20:34;;;;;;;;;;;3.60;99.90;;;1.80;91.44;103085.25;5052794;28;19928;-41
2021/03/01 06:23:03;;;;;;;;;;;3.50;99.90;;;1.89;91.93;103085.66;5055071;28;19924;-40
2021/03/01 06:25:31;;;;;;;;;;;3.60;99.90;;;1.93;91.82;103090.72;5053193;28;19928;-40
2021/03/01 06:28:03;;;;;;;;;;;3.60;99.90;;;1.89;91.76;103091.03;5037409;28;20012;-41
2021/03/01 06:30:33;;;;;;;;;;;3.60;99.90;;;1.89;91.16;103097.28;5037310;28;19925;-40
2021/03/01 06:33:13;;;;;;;;;;;3.60;99.90;;;1.91;90.88;103094.50;5053881;28;19931;-40
2021/03/01 06:35:51;;;;;;;;;;;3.70;99.90;;;1.95;90.42;103096.00;5054894;28;19936;-40
2021/03/01 06:38:29;;;;;;;;;;;3.70;99.90;;;1.90;90.25;103099.00;5054030;28;19932;-40
2021/03/01 06:41:08;;;;;;;;;;;3.60;99.90;;;1.94;91.03;103103.22;5053681;28;19928;-41
2021/03/01 06:43:35;;;;;;;;;;;3.70;99.90;;;1.88;89.94;103103.63;5053002;28;19929;-41
2021/03/01 06:46:14;;;;;;;;;;;3.60;99.90;;;1.87;90.17;103109.97;5054866;28;19925;-40
2021/03/01 06:48:41;;;;;;;;;;;3.60;99.90;;;1.93;90.92;103103.31;5037139;28;19931;-40
2021/03/01 06:51:09;;;;;;;;;;;3.70;99.90;;;1.95;90.15;103112.16;5020676;28;19925;-41
2021/03/01 06:53:38;;;;;;;;;;;3.70;99.90;;;1.89;90.12;103113.41;5053871;28;20376;-41
2021/03/01 06:56:07;;;;;;;;;;;3.60;99.90;;;1.91;90.28;103113.34;5053243;28;19925;-41
2021/03/01 06:58:36;;;;;;;;;;;3.60;99.90;;;1.88;90.61;103111.69;5053267;28;19924;-40
2021/03/01 07:01:06;;;;;;;;;;;3.60;99.90;;;1.91;90.32;103107.94;5054671;28;19925;-40
2021/03/01 07:03:35;;;;;;;;;;;3.60;99.90;;;1.93;90.44;103112.25;5035791;28;20016;-40
2021/03/01 07:06:05;;;;;;;;;;;3.60;99.90;;;1.97;90.04;103110.25;5054177;28;19959;-40
2021/03/01 07:08:35;;;;;;;;;;;3.70;99.90;;;1.99;90.64;103113.69;5053262;28;19924;-40
2021/03/01 07:11:22;;;;;;;;;;;3.70;99.90;;;2.05;90.56;103115.97;5053089;28;19925;-40
2021/03/01 07:13:58;;;;;;;;;;;3.70;99.90;;;2.04;90.00;103114.25;5053766;28;20346;-40
2021/03/01 07:16:26;;;;;;;;;;;3.80;99.90;;;2.07;90.49;103121.28;5053867;28;19925;-41
2021/03/01 07:18:55;;;;;;;;;;;3.80;99.90;;;2.10;90.30;103110.31;5054291;28;19947;-41
2021/03/01 07:21:22;;;;;;;;;;;3.80;99.90;;;2.20;90.72;103110.56;5051697;28;19940;-41
2021/03/01 07:23:50;;;;;;;;;;;3.90;99.90;;;2.24;90.64;103109.41;5035719;28;20395;-41
2021/03/01 07:26:17;;;;;;;;;;;3.90;99.90;;;2.28;90.02;103114.50;5036336;28;20011;-41
2021/03/01 07:29:00;;;;;;;;;;;3.90;99.90;;;2.36;90.42;103113.97;5053991;28;19925;-41
2021/03/01 07:31:34;;;;;;;;;;;4.00;99.90;;;2.44;90.39;103108.94;5052949;28;19929;-41
2021/03/01 07:34:10;;;;;;;;;;;4.10;99.90;;;2.49;90.13;103115.84;5052115;28;19925;-41
2021/03/01 07:36:38;;;;;;;;;;;4.10;99.90;;;2.52;89.79;103110.25;5036195;28;20361;-40
2021/03/01 07:39:09;;;;;;;;;;;4.20;99.90;;;2.56;89.27;103106.38;5053605;28;19935;-41
2021/03/01 07:41:38;;;;;;;;;;;4.20;99.90;;;2.64;89.16;103105.88;5053736;28;20442;-41
2021/03/01 07:44:08;;;;;;;;;;;4.20;99.90;;;2.64;88.84;103105.88;5052913;28;20023;-40
2021/03/01 07:46:41;;;;;;;;;;;4.30;99.90;;;2.71;88.17;103104.47;5053828;28;19928;-41
2021/03/01 07:49:13;;;;;;;;;;;4.30;99.90;;;2.73;87.50;103108.81;5052364;28;19925;-41
2021/03/01 07:51:43;;;;;;;;;;;4.40;99.90;;;2.83;88.18;103110.88;5052401;28;19936;-41
2021/03/01 07:54:12;;;;;;;;;;;4.40;99.90;;;2.87;86.87;103112.38;5052825;28;19929;-41
2021/03/01 07:56:40;;;;;;;;;;;4.50;99.90;;;2.88;86.90;103116.81;5052417;28;19951;-41
2021/03/01 07:59:09;;;;;;;;;;;4.50;99.90;;;2.91;87.39;103121.97;5053417;28;19928;-41
2021/03/01 08:01:37;;;;;;;;;;;4.60;99.90;;;2.97;87.44;103120.69;5052151;28;19947;-41
2021/03/01 08:04:06;;;;;;;;;;;4.60;99.90;;;2.98;86.61;103125.13;5051225;28;19924;-41
2021/03/01 08:06:52;;;;;;;;;;;4.60;99.90;;;2.96;85.85;103114.47;5053439;28;19925;-41
2021/03/01 08:09:38;;;;;;;;;;;4.60;99.90;;;2.97;86.92;103118.00;5051941;28;19932;-41
2021/03/01 08:12:05;;;;;;;;;;;4.60;99.90;;;3.01;86.25;103115.00;5051851;28;19925;-41
2021/03/01 08:14:52;;;;;;;;;;;4.70;99.90;;;3.08;86.46;103117.25;5050044;28;19924;-40
2021/03/01 08:17:28;;;;;;;;;;;4.70;99.90;;;3.17;85.95;103113.91;5035242;28;20249;-41
2021/03/01 08:19:58;;;;;;;;;;;4.80;99.90;;;3.14;85.54;103111.44;5052931;28;19932;-41
2021/03/01 08:22:29;;;;;;;;;;;4.80;99.90;;;3.22;84.96;103102.81;5050663;28;19972;-41
2021/03/01 08:24:57;;;;;;;;;;;4.80;99.90;;;3.26;85.14;103098.91;5052457;28;19925;-41
2021/03/01 08:27:25;;;;;;;;;;;4.90;99.90;;;3.25;84.48;103105.28;5035217;28;19932;-41
2021/03/01 08:30:11;;;;;;;;;;;4.90;99.90;;;3.35;85.04;103108.22;5051615;28;19925;-41
2021/03/01 08:32:38;;;;;;;;;;;4.90;99.90;;;3.36;85.28;103105.41;5051352;28;19931;-41
2021/03/01 08:35:25;;;;;;;;;;;4.90;99.90;;;3.52;84.46;103099.78;5050972;28;19932;-41
2021/03/01 08:37:52;;;;;;;;;;;5.10;99.90;;;3.65;85.02;103097.06;5051701;28;19925;-41
2021/03/01 08:40:21;;;;;;;;;;;5.20;99.90;;;3.77;83.97;103106.13;5052647;28;19932;-41
2021/03/01 08:42:51;;;;;;;;;;;5.30;99.90;;;3.94;84.60;103101.31;5052721;28;19925;-41
2021/03/01 08:45:22;;;;;;;;;;;5.40;99.90;;;3.97;83.16;103098.38;5050779;28;20303;-41
2021/03/01 08:47:52;;;;;;;;;;;5.50;99.90;;;3.69;83.29;103100.38;5052725;28;19931;-41
2021/03/01 08:50:22;;;;;;;;;;;5.40;99.90;;;3.83;84.71;103104.78;5052453;28;19935;-41
2021/03/01 08:53:07;;;;;;;;;;;5.40;99.90;;;3.73;82.65;103115.41;5052544;28;20016;-41
2021/03/01 08:55:37;;;;;;;;;;;5.40;99.90;;;3.64;83.97;103110.66;5050279;28;19928;-41
2021/03/01 08:58:07;;;;;;;;;;;5.30;99.90;;;3.65;83.28;103098.88;5051044;28;19925;-41
2021/03/01 09:00:37;;;;;;;;;;;5.40;99.90;;;3.70;83.13;103105.69;5052152;28;19929;-41
2021/03/01 09:03:16;;;;;;;;;;;5.30;99.90;;;3.82;82.95;103103.06;5051105;28;19924;-41
2021/03/01 09:05:45;;;;;;;;;;;5.40;99.90;;;3.68;81.65;103109.47;5051152;28;19925;-41
2021/03/01 09:08:27;;;;;;;;;;;5.40;99.90;;;3.83;83.04;103112.88;5052107;28;20015;-41
2021/03/01 09:10:55;;;;;;;;;;;5.40;99.90;;;3.79;81.77;103114.97;5050998;28;20342;-41
2021/03/01 09:13:24;;;;;;;;;;;5.40;99.90;;;3.82;81.92;103113.84;5051454;28;20379;-41
2021/03/01 09:15:52;;;;;;;;;;;5.50;99.90;;;3.67;81.00;103105.91;5050778;28;19929;-41
2021/03/01 09:18:20;;;;;;;;;;;5.40;99.90;;;3.59;81.88;103113.72;5050878;28;20287;-41
2021/03/01 09:20:57;;;;;;;;;;;5.30;99.90;;;3.77;82.82;103107.94;5049794;28;20383;-41
2021/03/01 09:23:36;;;;;;;;;;;5.40;99.90;;;4.00;81.83;103103.56;5050210;28;19925;-41
2021/03/01 09:26:05;;;;;;;;;;;5.50;99.90;;;4.22;80.71;103110.06;5051722;28;19971;-41
2021/03/01 09:28:36;;;;;;;;;;;5.70;99.90;;;4.27;80.09;103107.91;5050780;28;20012;-41
2021/03/01 09:31:06;;;;;;;;;;;5.80;99.90;;;4.18;78.78;103102.19;5050988;28;20395;-41
2021/03/01 09:33:34;;;;;;;;;;;5.80;99.90;;;3.99;80.05;103101.84;5050185;28;19928;-41
2021/03/01 09:36:03;;;;;;;;;;;5.70;99.90;;;4.07;80.33;103102.13;5050517;28;19932;-41
2021/03/01 09:38:30;;;;;;;;;;;5.70;99.90;;;4.37;79.31;103106.22;5051899;28;20353;-41
2021/03/01 09:40:59;;;;;;;;;;;5.90;99.90;;;4.38;78.64;103104.41;5050566;28;20354;-41
2021/03/01 09:43:27;;;;;;;;;;;5.90;99.90;;;4.41;78.21;103104.16;5051416;28;19929;-41
2021/03/01 09:45:57;;;;;;;;;;;6.00;99.90;;;4.49;78.53;103100.84;5034119;28;19925;-41
2021/03/01 09:48:27;;;;;;;;;;;6.00;99.90;;;4.66;78.28;103094.19;5050352;28;19932;-41
2021/03/01 09:50:56;;;;;;;;;;;6.20;99.90;;;4.61;77.38;103087.28;5051761;28;19924;-41
2021/03/01 09:53:26;;;;;;;;;;;6.20;99.90;;;4.66;77.12;103089.63;5049820;28;20007;-41
2021/03/01 09:55:54;;;;;;;;;;;6.20;99.90;;;4.63;77.03;103084.47;5050413;28;19951;-41
2021/03/01 09:58:33;;;;;;;;;;;6.20;99.90;;;4.78;76.54;103081.56;5050700;28;19995;-41
2021/03/01 10:01:19;;;;;;;;;;;6.30;99.90;;;4.95;76.32;103078.41;5051667;28;19929;-41
2021/03/01 10:03:48;;;;;;;;;;;6.40;99.90;;;5.04;75.76;103088.53;5050989;28;19929;-41
2021/03/01 10:06:29;;;;;;;;;;;6.50;99.90;;;5.08;74.38;103078.28;5051672;28;20649;-41
2021/03/01 10:09:06;;;;;;;;;;;6.60;99.90;;;5.12;75.48;103081.63;5050503;28;19931;-41
2021/03/01 10:11:34;;;;;;;;;;;6.70;99.90;;;5.09;74.55;103068.34;5051690;28;19925;-41
2021/03/01 10:14:05;;;;;;;;;;;6.70;99.90;;;5.13;74.92;103073.38;5049617;28;19932;-41
2021/03/01 10:16:34;;;;;;;;;;;6.70;99.90;;;5.26;74.21;103067.00;5050146;28;19925;-41
2021/03/01 10:19:11;;;;;;;;;;;6.80;99.90;;;5.30;74.31;103071.19;5051369;28;20413;-41
2021/03/01 10:21:40;;;;;;;;;;;6.80;99.90;;;5.42;74.11;103077.47;5049238;28;19924;-41
2021/03/01 10:24:10;;;;;;;;;;;6.90;99.90;;;5.44;74.37;103068.25;5050788;28;19929;-41
2021/03/01 10:26:56;;;;;;;;;;;7.00;99.90;;;5.62;74.43;103065.03;5050100;28;19925;-41
2021/03/01 10:29:33;;;;;;;;;;;7.10;99.90;;;5.64;74.61;103062.19;5051593;28;19967;-41
2021/03/01 10:32:03;;;;;;;;;;;7.10;99.90;;;5.82;74.39;103068.81;5033841;28;20422;-41
2021/03/01 10:34:32;;;;;;;;;;;7.30;99.90;;;6.04;74.47;103065.22;5050551;28;19929;-41
2021/03/01 10:36:59;;;;;;;;;;;7.50;99.90;;;6.21;73.42;103062.94;5051423;28;19932;-41
2021/03/01 10:39:36;;;;;;;;;;;7.60;99.90;;;6.36;71.67;103071.63;5053638;28;20346;-41
2021/03/01 10:42:14;;;;;;;;;;;7.70;99.90;;;6.26;71.48;103062.56;5053683;28;19924;-41
2021/03/01 10:44:54;;;;;;;;;;;7.80;99.90;;;6.40;71.43;103056.84;5054140;28;20373;-41
2021/03/01 10:47:32;;;;;;;;;;;7.90;99.90;;;6.54;71.56;103062.94;5054705;28;19932;-41
2021/03/01 10:50:03;;;;;;;;;;;8.00;99.90;;;6.68;70.83;103059.91;5055040;28;19951;-41
2021/03/01 10:52:30;;;;;;;;;;;8.10;99.90;;;6.64;69.81;103060.31;5053402;28;19929;-41
2021/03/01 10:54:58;;;;;;;;;;;8.10;99.90;;;6.66;71.60;103066.47;5052735;28;19943;-41
2021/03/01 10:57:27;;;;;;;;;;;8.10;99.90;;;6.78;71.00;103061.84;5053419;28;19928;-41
2021/03/01 10:59:56;;;;;;;;;;;8.20;99.90;;;6.79;70.14;103067.16;5053111;28;19960;-41
2021/03/01 11:02:23;;;;;;;;;;;8.30;99.90;;;6.85;69.66;103053.03;5053574;28;20008;-41
2021/03/01 11:04:50;;;;;;;;;;;8.40;99.90;;;6.83;70.86;103056.88;5052553;28;19933;-41
2021/03/01 11:07:18;;;;;;;;;;;8.30;99.90;;;6.99;69.88;103059.97;5053139;28;19967;-41
2021/03/01 11:09:45;;;;;;;;;;;8.40;99.90;;;7.04;69.11;103055.00;5054439;28;19932;-41
2021/03/01 11:12:14;;;;;;;;;;;8.50;99.90;;;7.07;69.66;103053.00;5053131;28;19929;-41
2021/03/01 11:14:41;;;;;;;;;;;8.50;99.90;;;7.26;69.22;103049.53;5052255;28;20470;-41
2021/03/01 11:17:09;;;;;;;;;;;8.60;99.90;;;7.31;68.26;103047.28;5053161;28;20391;-41
2021/03/01 11:19:36;;;;;;;;;;;8.70;99.90;;;7.37;67.21;103040.44;5054044;28;20459;-41
2021/03/01 11:22:04;;;;;;;;;;;8.80;99.90;;;7.42;68.84;103039.03;5051732;28;19947;-41
2021/03/01 11:24:31;;;;;;;;;;;8.80;99.90;;;7.30;66.93;103035.56;5052011;28;19925;-41
2021/03/01 11:26:58;;;;;;;;;;;8.80;99.90;;;7.43;68.44;103035.31;5020064;28;19925;-41
2021/03/01 11:29:25;;;;;;;;;;;8.90;99.90;;;7.53;67.64;103031.75;5052892;28;19928;-41
2021/03/01 11:31:52;;;;;;;;;;;9.00;99.90;;;7.46;66.99;103036.91;5036472;28;20344;-41
2021/03/01 11:34:20;;;;;;;;;;;9.00;99.90;;;7.45;67.60;103022.44;5051999;28;20387;-41
2021/03/01 11:36:48;;;;;;;;;;;9.00;99.90;;;7.51;68.85;103026.47;5052621;28;19931;-41
2021/03/01 11:39:15;;;;;;;;;;;9.00;99.90;;;7.40;67.76;103021.13;5036255;28;19932;-41